sensor_id;sensor_type;location;lat;lon;timestamp;P1;durP1;ratioP1;P2;durP2;ratioP2
37151;SDS011;23046;50.112;8.952;2023-07-30T00:00:03;1.50;;;1.20;;
37151;SDS011;23046;50.112;8.952;2023-07-30T00:00:13;1.60;;;1.20;;
37151;SDS011;23046;50.112;8.952;2023-07-30T00:00:24;1.35;;;1.20;;
37151;SDS011;23046;50.112;8.952;2023-07-30T00:00:34;1.37;;;1.27;;
37151;SDS011;23046;50.112;8.952;2023-07-30T00:00:44;1.40;;;1.30;;
37151;SDS011;23046;50.112;8.952;2023-07-30T00:00:54;2.03;;;1.40;;
37151;SDS011;23046;50.112;8.952;2023-07-30T00:01:04;2.10;;;1.40;;
37151;SDS011;23046;50.112;8.952;2023-07-30T00:01:15;2.00;;;1.37;;
37151;SDS011;23046;50.112;8.952;2023-07-30T00:01:25;1.40;;;1.30;;
37151;SDS011;23046;50.112;8.952;2023-07-30T00:01:35;1.40;;;1.30;;
37151;SDS011;23046;50.112;8.952;2023-07-30T00:01:45;1.43;;;1.33;;
37151;SDS011;23046;50.112;8.952;2023-07-30T00:01:55;1.50;;;1.40;;
37151;SDS011;23046;50.112;8.952;2023-07-30T00:02:06;1.35;;;1.25;;
37151;SDS011;23046;50.112;8.952;2023-07-30T00:02:16;1.30;;;1.20;;
37151;SDS011;23046;50.112;8.952;2023-07-30T00:02:26;1.10;;;1.10;;
37151;SDS011;23046;50.112;8.952;2023-07-30T00:02:37;1.35;;;1.25;;
37151;SDS011;23046;50.112;8.952;2023-07-30T00:02:47;1.50;;;1.40;;
37151;SDS011;23046;50.112;8.952;2023-07-30T00:02:57;1.50;;;1.40;;
37151;SDS011;23046;50.112;8.952;2023-07-30T00:03:07;1.53;;;1.43;;
37151;SDS011;23046;50.112;8.952;2023-07-30T00:03:17;1.50;;;1.40;;
37151;SDS011;23046;50.112;8.952;2023-07-30T00:03:28;1.50;;;1.40;;
37151;SDS011;23046;50.112;8.952;2023-07-30T00:03:38;1.40;;;1.30;;
37151;SDS011;23046;50.112;8.952;2023-07-30T00:03:48;1.33;;;1.23;;
37151;SDS011;23046;50.112;8.952;2023-07-30T00:03:58;1.40;;;1.30;;
37151;SDS011;23046;50.112;8.952;2023-07-30T00:04:09;1.67;;;1.25;;
37151;SDS011;23046;50.112;8.952;2023-07-30T00:04:19;1.50;;;1.20;;
37151;SDS011;23046;50.112;8.952;2023-07-30T00:04:29;1.90;;;1.20;;
37151;SDS011;23046;50.112;8.952;2023-07-30T00:04:39;1.50;;;1.23;;
37151;SDS011;23046;50.112;8.952;2023-07-30T00:04:49;1.53;;;1.30;;
37151;SDS011;23046;50.112;8.952;2023-07-30T00:05:00;1.30;;;1.20;;
37151;SDS011;23046;50.112;8.952;2023-07-30T00:05:10;1.40;;;1.30;;
37151;SDS011;23046;50.112;8.952;2023-07-30T00:05:20;1.37;;;1.27;;
37151;SDS011;23046;50.112;8.952;2023-07-30T00:05:30;1.40;;;1.30;;
37151;SDS011;23046;50.112;8.952;2023-07-30T00:05:41;1.40;;;1.30;;
37151;SDS011;23046;50.112;8.952;2023-07-30T00:05:54;1.40;;;1.30;;
37151;SDS011;23046;50.112;8.952;2023-07-30T00:06:04;1.38;;;1.25;;
37151;SDS011;23046;50.112;8.952;2023-07-30T00:06:14;1.33;;;1.20;;
37151;SDS011;23046;50.112;8.952;2023-07-30T00:06:25;1.40;;;1.13;;
37151;SDS011;23046;50.112;8.952;2023-07-30T00:06:35;1.30;;;1.20;;
37151;SDS011;23046;50.112;8.952;2023-07-30T00:06:45;1.40;;;1.30;;
37151;SDS011;23046;50.112;8.952;2023-07-30T00:06:55;1.40;;;1.30;;
37151;SDS011;23046;50.112;8.952;2023-07-30T00:07:05;1.30;;;1.20;;
37151;SDS011;23046;50.112;8.952;2023-07-30T00:07:15;1.17;;;1.07;;
37151;SDS011;23046;50.112;8.952;2023-07-30T00:07:26;1.00;;;0.97;;
37151;SDS011;23046;50.112;8.952;2023-07-30T00:07:36;1.10;;;1.02;;
37151;SDS011;23046;50.112;8.952;2023-07-30T00:07:46;1.10;;;1.10;;
37151;SDS011;23046;50.112;8.952;2023-07-30T00:07:56;1.80;;;1.20;;
37151;SDS011;23046;50.112;8.952;2023-07-30T00:08:07;1.90;;;1.13;;
37151;SDS011;23046;50.112;8.952;2023-07-30T00:08:17;1.80;;;1.10;;
37151;SDS011;23046;50.112;8.952;2023-07-30T00:08:27;1.40;;;1.30;;
37151;SDS011;23046;50.112;8.952;2023-07-30T00:08:37;1.40;;;1.30;;
37151;SDS011;23046;50.112;8.952;2023-07-30T00:08:47;1.40;;;1.30;;
37151;SDS011;23046;50.112;8.952;2023-07-30T00:08:58;1.20;;;1.10;;
37151;SDS011;23046;50.112;8.952;2023-07-30T00:09:08;1.33;;;1.23;;
37151;SDS011;23046;50.112;8.952;2023-07-30T00:09:18;1.70;;;1.20;;
37151;SDS011;23046;50.112;8.952;2023-07-30T00:09:28;1.70;;;1.20;;
37151;SDS011;23046;50.112;8.952;2023-07-30T00:09:38;1.97;;;1.20;;
37151;SDS011;23046;50.112;8.952;2023-07-30T00:09:49;1.30;;;1.20;;
37151;SDS011;23046;50.112;8.952;2023-07-30T00:09:59;1.30;;;1.20;;
37151;SDS011;23046;50.112;8.952;2023-07-30T00:10:09;1.08;;;1.08;;
37151;SDS011;23046;50.112;8.952;2023-07-30T00:10:19;1.90;;;1.20;;
37151;SDS011;23046;50.112;8.952;2023-07-30T00:10:30;1.90;;;1.23;;
37151;SDS011;23046;50.112;8.952;2023-07-30T00:10:40;2.13;;;1.30;;
37151;SDS011;23046;50.112;8.952;2023-07-30T00:10:50;1.50;;;1.40;;
37151;SDS011;23046;50.112;8.952;2023-07-30T00:11:00;1.48;;;1.35;;
37151;SDS011;23046;50.112;8.952;2023-07-30T00:11:10;1.50;;;1.40;;
37151;SDS011;23046;50.112;8.952;2023-07-30T00:11:21;1.30;;;1.20;;
37151;SDS011;23046;50.112;8.952;2023-07-30T00:11:31;1.30;;;1.20;;
37151;SDS011;23046;50.112;8.952;2023-07-30T00:11:41;1.30;;;1.20;;
37151;SDS011;23046;50.112;8.952;2023-07-30T00:11:51;1.30;;;1.20;;
37151;SDS011;23046;50.112;8.952;2023-07-30T00:12:01;1.43;;;1.33;;
37151;SDS011;23046;50.112;8.952;2023-07-30T00:12:12;1.40;;;1.30;;
37151;SDS011;23046;50.112;8.952;2023-07-30T00:12:22;1.42;;;1.27;;
37151;SDS011;23046;50.112;8.952;2023-07-30T00:12:32;1.20;;;1.10;;
37151;SDS011;23046;50.112;8.952;2023-07-30T00:12:43;1.20;;;1.10;;
37151;SDS011;23046;50.112;8.952;2023-07-30T00:12:53;1.10;;;1.10;;
37151;SDS011;23046;50.112;8.952;2023-07-30T00:13:03;1.30;;;1.20;;
37151;SDS011;23046;50.112;8.952;2023-07-30T00:13:13;1.30;;;1.20;;
37151;SDS011;23046;50.112;8.952;2023-07-30T00:13:23;1.30;;;1.20;;
37151;SDS011;23046;50.112;8.952;2023-07-30T00:13:34;1.30;;;1.20;;
37151;SDS011;23046;50.112;8.952;2023-07-30T00:13:44;1.30;;;1.20;;
37151;SDS011;23046;50.112;8.952;2023-07-30T00:13:54;1.40;;;1.30;;
37151;SDS011;23046;50.112;8.952;2023-07-30T00:14:04;1.50;;;1.40;;
37151;SDS011;23046;50.112;8.952;2023-07-30T00:14:14;1.50;;;1.40;;
37151;SDS011;23046;50.112;8.952;2023-07-30T00:14:24;1.47;;;1.37;;
37151;SDS011;23046;50.112;8.952;2023-07-30T00:14:35;1.43;;;1.30;;
37151;SDS011;23046;50.112;8.952;2023-07-30T00:14:45;1.70;;;1.33;;
37151;SDS011;23046;50.112;8.952;2023-07-30T00:14:55;1.67;;;1.20;;
37151;SDS011;23046;50.112;8.952;2023-07-30T00:15:06;1.52;;;1.20;;
37151;SDS011;23046;50.112;8.952;2023-07-30T00:15:16;1.30;;;1.20;;
37151;SDS011;23046;50.112;8.952;2023-07-30T00:15:26;1.30;;;1.20;;
37151;SDS011;23046;50.112;8.952;2023-07-30T00:15:36;1.40;;;1.30;;
37151;SDS011;23046;50.112;8.952;2023-07-30T00:15:47;1.30;;;1.20;;
37151;SDS011;23046;50.112;8.952;2023-07-30T00:15:57;1.37;;;1.27;;
37151;SDS011;23046;50.112;8.952;2023-07-30T00:16:07;1.20;;;1.10;;
37151;SDS011;23046;50.112;8.952;2023-07-30T00:16:17;1.20;;;1.10;;
37151;SDS011;23046;50.112;8.952;2023-07-30T00:16:27;1.30;;;1.20;;
37151;SDS011;23046;50.112;8.952;2023-07-30T00:16:38;1.30;;;1.20;;
37151;SDS011;23046;50.112;8.952;2023-07-30T00:16:48;1.30;;;1.20;;
37151;SDS011;23046;50.112;8.952;2023-07-30T00:16:58;1.30;;;1.20;;
37151;SDS011;23046;50.112;8.952;2023-07-30T00:17:08;1.30;;;1.20;;
37151;SDS011;23046;50.112;8.952;2023-07-30T00:17:18;1.20;;;1.10;;
37151;SDS011;23046;50.112;8.952;2023-07-30T00:17:29;1.27;;;1.17;;
37151;SDS011;23046;50.112;8.952;2023-07-30T00:17:39;1.50;;;1.40;;
37151;SDS011;23046;50.112;8.952;2023-07-30T00:17:49;1.50;;;1.40;;
37151;SDS011;23046;50.112;8.952;2023-07-30T00:17:59;1.50;;;1.40;;
37151;SDS011;23046;50.112;8.952;2023-07-30T00:18:09;1.40;;;1.30;;
37151;SDS011;23046;50.112;8.952;2023-07-30T00:18:20;1.50;;;1.40;;
37151;SDS011;23046;50.112;8.952;2023-07-30T00:18:30;1.50;;;1.40;;
37151;SDS011;23046;50.112;8.952;2023-07-30T00:18:40;2.17;;;1.50;;
37151;SDS011;23046;50.112;8.952;2023-07-30T00:18:50;2.50;;;1.50;;
37151;SDS011;23046;50.112;8.952;2023-07-30T00:19:00;2.50;;;1.50;;
37151;SDS011;23046;50.112;8.952;2023-07-30T00:19:11;1.52;;;1.40;;
37151;SDS011;23046;50.112;8.952;2023-07-30T00:19:21;1.37;;;1.33;;
37151;SDS011;23046;50.112;8.952;2023-07-30T00:19:31;1.40;;;1.30;;
37151;SDS011;23046;50.112;8.952;2023-07-30T00:19:41;1.40;;;1.30;;
37151;SDS011;23046;50.112;8.952;2023-07-30T00:19:51;1.40;;;1.30;;
37151;SDS011;23046;50.112;8.952;2023-07-30T00:20:02;1.30;;;1.20;;
37151;SDS011;23046;50.112;8.952;2023-07-30T00:20:12;1.33;;;1.23;;
37151;SDS011;23046;50.112;8.952;2023-07-30T00:20:23;1.57;;;1.20;;
37151;SDS011;23046;50.112;8.952;2023-07-30T00:20:35;2.50;;;1.35;;
37151;SDS011;23046;50.112;8.952;2023-07-30T00:20:46;2.45;;;1.30;;
37151;SDS011;23046;50.112;8.952;2023-07-30T00:20:56;1.55;;;1.23;;
37151;SDS011;23046;50.112;8.952;2023-07-30T00:21:09;1.20;;;1.10;;
37151;SDS011;23046;50.112;8.952;2023-07-30T00:21:19;1.20;;;1.10;;
37151;SDS011;23046;50.112;8.952;2023-07-30T00:21:29;1.30;;;1.20;;
37151;SDS011;23046;50.112;8.952;2023-07-30T00:21:39;1.40;;;1.20;;
37151;SDS011;23046;50.112;8.952;2023-07-30T00:21:49;1.57;;;1.20;;
37151;SDS011;23046;50.112;8.952;2023-07-30T00:22:00;2.50;;;1.20;;
37151;SDS011;23046;50.112;8.952;2023-07-30T00:22:10;2.17;;;1.20;;
37151;SDS011;23046;50.112;8.952;2023-07-30T00:22:20;2.03;;;1.20;;
37151;SDS011;23046;50.112;8.952;2023-07-30T00:22:30;1.30;;;1.20;;
37151;SDS011;23046;50.112;8.952;2023-07-30T00:22:40;1.30;;;1.20;;
37151;SDS011;23046;50.112;8.952;2023-07-30T00:22:51;1.30;;;1.20;;
37151;SDS011;23046;50.112;8.952;2023-07-30T00:23:01;1.37;;;1.27;;
37151;SDS011;23046;50.112;8.952;2023-07-30T00:23:11;1.30;;;1.20;;
37151;SDS011;23046;50.112;8.952;2023-07-30T00:23:21;1.30;;;1.20;;
37151;SDS011;23046;50.112;8.952;2023-07-30T00:23:31;1.20;;;1.10;;
37151;SDS011;23046;50.112;8.952;2023-07-30T00:23:42;1.23;;;1.13;;
37151;SDS011;23046;50.112;8.952;2023-07-30T00:23:52;1.30;;;1.20;;
37151;SDS011;23046;50.112;8.952;2023-07-30T00:24:02;1.43;;;1.33;;
37151;SDS011;23046;50.112;8.952;2023-07-30T00:24:13;1.50;;;1.40;;
37151;SDS011;23046;50.112;8.952;2023-07-30T00:24:23;1.67;;;1.40;;
37151;SDS011;23046;50.112;8.952;2023-07-30T00:24:33;1.58;;;1.40;;
37151;SDS011;23046;50.112;8.952;2023-07-30T00:24:43;1.77;;;1.43;;
37151;SDS011;23046;50.112;8.952;2023-07-30T00:24:53;1.47;;;1.37;;
37151;SDS011;23046;50.112;8.952;2023-07-30T00:25:04;1.53;;;1.30;;
37151;SDS011;23046;50.112;8.952;2023-07-30T00:25:14;1.40;;;1.30;;
37151;SDS011;23046;50.112;8.952;2023-07-30T00:25:24;1.55;;;1.45;;
37151;SDS011;23046;50.112;8.952;2023-07-30T00:25:35;1.50;;;1.40;;
37151;SDS011;23046;50.112;8.952;2023-07-30T00:25:45;2.40;;;1.40;;
37151;SDS011;23046;50.112;8.952;2023-07-30T00:25:55;2.60;;;1.20;;
37151;SDS011;23046;50.112;8.952;2023-07-30T00:26:05;2.38;;;1.20;;
37151;SDS011;23046;50.112;8.952;2023-07-30T00:26:15;1.40;;;1.07;;
37151;SDS011;23046;50.112;8.952;2023-07-30T00:26:26;1.20;;;1.10;;
37151;SDS011;23046;50.112;8.952;2023-07-30T00:26:36;1.10;;;1.00;;
37151;SDS011;23046;50.112;8.952;2023-07-30T00:26:48;1.05;;;1.05;;
37151;SDS011;23046;50.112;8.952;2023-07-30T00:26:58;1.20;;;1.10;;
37151;SDS011;23046;50.112;8.952;2023-07-30T00:27:08;1.20;;;1.10;;
37151;SDS011;23046;50.112;8.952;2023-07-30T00:27:19;1.20;;;1.10;;
37151;SDS011;23046;50.112;8.952;2023-07-30T00:27:29;1.20;;;1.10;;
37151;SDS011;23046;50.112;8.952;2023-07-30T00:27:39;1.50;;;1.20;;
37151;SDS011;23046;50.112;8.952;2023-07-30T00:27:50;2.80;;;1.43;;
37151;SDS011;23046;50.112;8.952;2023-07-30T00:28:00;2.90;;;1.40;;
37151;SDS011;23046;50.112;8.952;2023-07-30T00:28:11;2.20;;;1.30;;
37151;SDS011;23046;50.112;8.952;2023-07-30T00:28:21;1.33;;;1.23;;
37151;SDS011;23046;50.112;8.952;2023-07-30T00:28:31;1.30;;;1.20;;
37151;SDS011;23046;50.112;8.952;2023-07-30T00:28:41;1.40;;;1.30;;
37151;SDS011;23046;50.112;8.952;2023-07-30T00:28:52;1.30;;;1.20;;
37151;SDS011;23046;50.112;8.952;2023-07-30T00:29:02;1.30;;;1.20;;
37151;SDS011;23046;50.112;8.952;2023-07-30T00:29:12;1.40;;;1.30;;
37151;SDS011;23046;50.112;8.952;2023-07-30T00:29:22;1.50;;;1.40;;
37151;SDS011;23046;50.112;8.952;2023-07-30T00:29:32;1.40;;;1.30;;
37151;SDS011;23046;50.112;8.952;2023-07-30T00:29:43;1.30;;;1.20;;
37151;SDS011;23046;50.112;8.952;2023-07-30T00:29:53;1.10;;;1.10;;
37151;SDS011;23046;50.112;8.952;2023-07-30T00:30:03;1.30;;;1.20;;
37151;SDS011;23046;50.112;8.952;2023-07-30T00:30:14;1.42;;;1.33;;
37151;SDS011;23046;50.112;8.952;2023-07-30T00:30:25;1.50;;;1.40;;
37151;SDS011;23046;50.112;8.952;2023-07-30T00:30:35;1.40;;;1.30;;
37151;SDS011;23046;50.112;8.952;2023-07-30T00:30:46;1.40;;;1.30;;
37151;SDS011;23046;50.112;8.952;2023-07-30T00:30:56;1.70;;;1.30;;
37151;SDS011;23046;50.112;8.952;2023-07-30T00:31:06;1.60;;;1.20;;
37151;SDS011;23046;50.112;8.952;2023-07-30T00:31:17;1.50;;;1.30;;
37151;SDS011;23046;50.112;8.952;2023-07-30T00:31:27;1.40;;;1.30;;
37151;SDS011;23046;50.112;8.952;2023-07-30T00:31:38;1.40;;;1.30;;
37151;SDS011;23046;50.112;8.952;2023-07-30T00:31:48;1.37;;;1.27;;
37151;SDS011;23046;50.112;8.952;2023-07-30T00:31:58;1.23;;;1.20;;
37151;SDS011;23046;50.112;8.952;2023-07-30T00:32:11;1.17;;;1.10;;
37151;SDS011;23046;50.112;8.952;2023-07-30T00:32:25;1.38;;;1.20;;
37151;SDS011;23046;50.112;8.952;2023-07-30T00:32:36;1.50;;;1.23;;
37151;SDS011;23046;50.112;8.952;2023-07-30T00:32:46;1.45;;;1.35;;
37151;SDS011;23046;50.112;8.952;2023-07-30T00:32:56;1.50;;;1.40;;
37151;SDS011;23046;50.112;8.952;2023-07-30T00:33:06;1.47;;;1.37;;
37151;SDS011;23046;50.112;8.952;2023-07-30T00:33:17;1.30;;;1.20;;
37151;SDS011;23046;50.112;8.952;2023-07-30T00:33:27;1.33;;;1.15;;
37151;SDS011;23046;50.112;8.952;2023-07-30T00:33:37;1.33;;;1.10;;
37151;SDS011;23046;50.112;8.952;2023-07-30T00:33:47;1.90;;;1.20;;
37151;SDS011;23046;50.112;8.952;2023-07-30T00:33:57;1.77;;;1.20;;
37151;SDS011;23046;50.112;8.952;2023-07-30T00:34:08;1.73;;;1.30;;
37151;SDS011;23046;50.112;8.952;2023-07-30T00:34:18;1.30;;;1.20;;
37151;SDS011;23046;50.112;8.952;2023-07-30T00:34:28;1.40;;;1.30;;
37151;SDS011;23046;50.112;8.952;2023-07-30T00:34:38;1.40;;;1.30;;
37151;SDS011;23046;50.112;8.952;2023-07-30T00:34:48;1.40;;;1.30;;
37151;SDS011;23046;50.112;8.952;2023-07-30T00:34:58;1.20;;;1.20;;
37151;SDS011;23046;50.112;8.952;2023-07-30T00:35:09;1.23;;;1.20;;
37151;SDS011;23046;50.112;8.952;2023-07-30T00:35:20;1.30;;;1.20;;
37151;SDS011;23046;50.112;8.952;2023-07-30T00:35:30;1.40;;;1.30;;
37151;SDS011;23046;50.112;8.952;2023-07-30T00:35:40;1.40;;;1.30;;
37151;SDS011;23046;50.112;8.952;2023-07-30T00:35:53;1.70;;;1.30;;
37151;SDS011;23046;50.112;8.952;2023-07-30T00:36:03;2.10;;;1.27;;
37151;SDS011;23046;50.112;8.952;2023-07-30T00:36:14;1.83;;;1.27;;
37151;SDS011;23046;50.112;8.952;2023-07-30T00:36:24;1.40;;;1.20;;
37151;SDS011;23046;50.112;8.952;2023-07-30T00:36:34;1.30;;;1.20;;
37151;SDS011;23046;50.112;8.952;2023-07-30T00:36:44;1.30;;;1.20;;
37151;SDS011;23046;50.112;8.952;2023-07-30T00:36:54;1.33;;;1.27;;
37151;SDS011;23046;50.112;8.952;2023-07-30T00:37:05;1.60;;;1.50;;
37151;SDS011;23046;50.112;8.952;2023-07-30T00:37:15;1.58;;;1.48;;
37151;SDS011;23046;50.112;8.952;2023-07-30T00:37:25;1.53;;;1.43;;
37151;SDS011;23046;50.112;8.952;2023-07-30T00:37:35;1.40;;;1.30;;
37151;SDS011;23046;50.112;8.952;2023-07-30T00:37:46;1.57;;;1.30;;
37151;SDS011;23046;50.112;8.952;2023-07-30T00:37:56;1.93;;;1.27;;
37151;SDS011;23046;50.112;8.952;2023-07-30T00:38:07;1.90;;;1.20;;
37151;SDS011;23046;50.112;8.952;2023-07-30T00:38:18;1.48;;;1.23;;
37151;SDS011;23046;50.112;8.952;2023-07-30T00:38:28;1.23;;;1.15;;
37151;SDS011;23046;50.112;8.952;2023-07-30T00:38:39;1.20;;;1.10;;
37151;SDS011;23046;50.112;8.952;2023-07-30T00:38:50;2.00;;;1.10;;
37151;SDS011;23046;50.112;8.952;2023-07-30T00:39:00;2.33;;;1.10;;
37151;SDS011;23046;50.112;8.952;2023-07-30T00:39:10;2.30;;;1.20;;
37151;SDS011;23046;50.112;8.952;2023-07-30T00:39:21;1.60;;;1.13;;
37151;SDS011;23046;50.112;8.952;2023-07-30T00:39:31;1.30;;;1.20;;
37151;SDS011;23046;50.112;8.952;2023-07-30T00:39:41;1.33;;;1.23;;
37151;SDS011;23046;50.112;8.952;2023-07-30T00:39:52;1.40;;;1.30;;
37151;SDS011;23046;50.112;8.952;2023-07-30T00:40:02;1.30;;;1.20;;
37151;SDS011;23046;50.112;8.952;2023-07-30T00:40:13;3.13;;;1.35;;
37151;SDS011;23046;50.112;8.952;2023-07-30T00:40:23;2.97;;;1.30;;
37151;SDS011;23046;50.112;8.952;2023-07-30T00:40:38;3.10;;;1.40;;
37151;SDS011;23046;50.112;8.952;2023-07-30T00:40:49;1.40;;;1.30;;
37151;SDS011;23046;50.112;8.952;2023-07-30T00:40:59;1.20;;;1.10;;
37151;SDS011;23046;50.112;8.952;2023-07-30T00:41:09;1.23;;;1.13;;
37151;SDS011;23046;50.112;8.952;2023-07-30T00:41:19;1.07;;;1.07;;
37151;SDS011;23046;50.112;8.952;2023-07-30T00:41:30;1.20;;;1.20;;
37151;SDS011;23046;50.112;8.952;2023-07-30T00:41:40;1.20;;;1.20;;
37151;SDS011;23046;50.112;8.952;2023-07-30T00:41:50;1.33;;;1.23;;
37151;SDS011;23046;50.112;8.952;2023-07-30T00:42:00;1.30;;;1.20;;
37151;SDS011;23046;50.112;8.952;2023-07-30T00:42:11;1.33;;;1.23;;
37151;SDS011;23046;50.112;8.952;2023-07-30T00:42:21;1.43;;;1.33;;
37151;SDS011;23046;50.112;8.952;2023-07-30T00:42:31;1.40;;;1.30;;
37151;SDS011;23046;50.112;8.952;2023-07-30T00:42:42;1.40;;;1.30;;
37151;SDS011;23046;50.112;8.952;2023-07-30T00:42:53;1.10;;;1.10;;
37151;SDS011;23046;50.112;8.952;2023-07-30T00:43:17;3.45;;;1.30;;
37151;SDS011;23046;50.112;8.952;2023-07-30T00:43:31;6.20;;;1.50;;
37151;SDS011;23046;50.112;8.952;2023-07-30T00:43:42;6.28;;;1.40;;
37151;SDS011;23046;50.112;8.952;2023-07-30T00:43:54;1.17;;;1.08;;
37151;SDS011;23046;50.112;8.952;2023-07-30T00:44:08;1.25;;;1.08;;
37151;SDS011;23046;50.112;8.952;2023-07-30T00:44:21;1.30;;;1.20;;
37151;SDS011;23046;50.112;8.952;2023-07-30T00:44:49;1.17;;;1.17;;
37151;SDS011;23046;50.112;8.952;2023-07-30T00:45:05;1.13;;;1.13;;
37151;SDS011;23046;50.112;8.952;2023-07-30T00:45:17;1.00;;;1.00;;
37151;SDS011;23046;50.112;8.952;2023-07-30T00:45:28;1.13;;;1.13;;
37151;SDS011;23046;50.112;8.952;2023-07-30T00:45:38;1.27;;;1.20;;
37151;SDS011;23046;50.112;8.952;2023-07-30T00:45:50;1.40;;;1.30;;
37151;SDS011;23046;50.112;8.952;2023-07-30T00:46:00;1.40;;;1.30;;
37151;SDS011;23046;50.112;8.952;2023-07-30T00:46:11;1.50;;;1.40;;
37151;SDS011;23046;50.112;8.952;2023-07-30T00:46:21;1.48;;;1.38;;
37151;SDS011;23046;50.112;8.952;2023-07-30T00:46:31;1.63;;;1.40;;
37151;SDS011;23046;50.112;8.952;2023-07-30T00:46:42;1.73;;;1.40;;
37151;SDS011;23046;50.112;8.952;2023-07-30T00:46:52;1.90;;;1.40;;
37151;SDS011;23046;50.112;8.952;2023-07-30T00:47:03;1.50;;;1.40;;
37151;SDS011;23046;50.112;8.952;2023-07-30T00:47:13;1.60;;;1.50;;
37151;SDS011;23046;50.112;8.952;2023-07-30T00:47:24;1.60;;;1.50;;
37151;SDS011;23046;50.112;8.952;2023-07-30T00:47:36;1.55;;;1.45;;
37151;SDS011;23046;50.112;8.952;2023-07-30T00:47:47;1.30;;;1.20;;
37151;SDS011;23046;50.112;8.952;2023-07-30T00:47:57;1.10;;;1.10;;
37151;SDS011;23046;50.112;8.952;2023-07-30T00:48:08;1.27;;;1.17;;
37151;SDS011;23046;50.112;8.952;2023-07-30T00:48:19;1.42;;;1.33;;
37151;SDS011;23046;50.112;8.952;2023-07-30T00:48:29;1.40;;;1.30;;
37151;SDS011;23046;50.112;8.952;2023-07-30T00:48:41;1.33;;;1.23;;
37151;SDS011;23046;50.112;8.952;2023-07-30T00:48:52;1.30;;;1.20;;
37151;SDS011;23046;50.112;8.952;2023-07-30T00:49:02;1.40;;;1.30;;
37151;SDS011;23046;50.112;8.952;2023-07-30T00:49:12;1.40;;;1.30;;
37151;SDS011;23046;50.112;8.952;2023-07-30T00:49:22;1.37;;;1.27;;
37151;SDS011;23046;50.112;8.952;2023-07-30T00:49:33;1.40;;;1.20;;
37151;SDS011;23046;50.112;8.952;2023-07-30T00:49:43;1.55;;;1.40;;
37151;SDS011;23046;50.112;8.952;2023-07-30T00:49:53;1.50;;;1.40;;
37151;SDS011;23046;50.112;8.952;2023-07-30T00:50:04;1.40;;;1.30;;
37151;SDS011;23046;50.112;8.952;2023-07-30T00:50:15;1.30;;;1.20;;
37151;SDS011;23046;50.112;8.952;2023-07-30T00:50:26;1.50;;;1.40;;
37151;SDS011;23046;50.112;8.952;2023-07-30T00:50:37;1.70;;;1.40;;
37151;SDS011;23046;50.112;8.952;2023-07-30T00:50:48;1.65;;;1.35;;
37151;SDS011;23046;50.112;8.952;2023-07-30T00:50:59;1.58;;;1.27;;
37151;SDS011;23046;50.112;8.952;2023-07-30T00:51:11;1.30;;;1.20;;
37151;SDS011;23046;50.112;8.952;2023-07-30T00:51:23;1.40;;;1.30;;
37151;SDS011;23046;50.112;8.952;2023-07-30T00:51:34;1.30;;;1.20;;
37151;SDS011;23046;50.112;8.952;2023-07-30T00:51:44;1.30;;;1.20;;
37151;SDS011;23046;50.112;8.952;2023-07-30T00:51:56;1.20;;;1.10;;
37151;SDS011;23046;50.112;8.952;2023-07-30T00:52:06;1.13;;;1.10;;
37151;SDS011;23046;50.112;8.952;2023-07-30T00:52:17;1.37;;;1.27;;
37151;SDS011;23046;50.112;8.952;2023-07-30T00:52:28;1.50;;;1.40;;
37151;SDS011;23046;50.112;8.952;2023-07-30T00:52:40;1.55;;;1.45;;
37151;SDS011;23046;50.112;8.952;2023-07-30T00:52:50;1.60;;;1.50;;
37151;SDS011;23046;50.112;8.952;2023-07-30T00:53:01;1.50;;;1.40;;
37151;SDS011;23046;50.112;8.952;2023-07-30T00:53:12;1.87;;;1.30;;
37151;SDS011;23046;50.112;8.952;2023-07-30T00:53:24;2.50;;;1.30;;
37151;SDS011;23046;50.112;8.952;2023-07-30T00:53:36;2.40;;;1.35;;
37151;SDS011;23046;50.112;8.952;2023-07-30T00:53:47;1.33;;;1.23;;
37151;SDS011;23046;50.112;8.952;2023-07-30T00:53:58;1.40;;;1.30;;
37151;SDS011;23046;50.112;8.952;2023-07-30T00:54:09;1.50;;;1.40;;
37151;SDS011;23046;50.112;8.952;2023-07-30T00:54:19;1.60;;;1.50;;
37151;SDS011;23046;50.112;8.952;2023-07-30T00:54:30;1.50;;;1.37;;
37151;SDS011;23046;50.112;8.952;2023-07-30T00:54:40;1.53;;;1.40;;
37151;SDS011;23046;50.112;8.952;2023-07-30T00:54:51;1.50;;;1.40;;
37151;SDS011;23046;50.112;8.952;2023-07-30T00:55:02;1.40;;;1.30;;
37151;SDS011;23046;50.112;8.952;2023-07-30T00:55:13;1.38;;;1.27;;
37151;SDS011;23046;50.112;8.952;2023-07-30T00:55:24;1.30;;;1.20;;
37151;SDS011;23046;50.112;8.952;2023-07-30T00:55:35;1.20;;;1.10;;
37151;SDS011;23046;50.112;8.952;2023-07-30T00:55:45;1.10;;;1.10;;
37151;SDS011;23046;50.112;8.952;2023-07-30T00:55:55;1.30;;;1.20;;
37151;SDS011;23046;50.112;8.952;2023-07-30T00:56:06;1.30;;;1.20;;
37151;SDS011;23046;50.112;8.952;2023-07-30T00:56:16;1.40;;;1.30;;
37151;SDS011;23046;50.112;8.952;2023-07-30T00:56:26;1.40;;;1.30;;
37151;SDS011;23046;50.112;8.952;2023-07-30T00:56:36;1.52;;;1.42;;
37151;SDS011;23046;50.112;8.952;2023-07-30T00:56:50;1.67;;;1.40;;
37151;SDS011;23046;50.112;8.952;2023-07-30T00:57:01;2.13;;;1.23;;
37151;SDS011;23046;50.112;8.952;2023-07-30T00:57:11;2.35;;;1.10;;
37151;SDS011;23046;50.112;8.952;2023-07-30T00:57:22;1.90;;;1.20;;
37151;SDS011;23046;50.112;8.952;2023-07-30T00:57:33;1.52;;;1.27;;
37151;SDS011;23046;50.112;8.952;2023-07-30T00:57:44;1.40;;;1.30;;
37151;SDS011;23046;50.112;8.952;2023-07-30T00:57:54;1.43;;;1.30;;
37151;SDS011;23046;50.112;8.952;2023-07-30T00:58:05;1.30;;;1.20;;
37151;SDS011;23046;50.112;8.952;2023-07-30T00:58:15;1.25;;;1.20;;
37151;SDS011;23046;50.112;8.952;2023-07-30T00:58:27;1.30;;;1.20;;
37151;SDS011;23046;50.112;8.952;2023-07-30T00:58:37;1.40;;;1.30;;
37151;SDS011;23046;50.112;8.952;2023-07-30T00:58:48;1.40;;;1.30;;
37151;SDS011;23046;50.112;8.952;2023-07-30T00:58:58;1.40;;;1.30;;
37151;SDS011;23046;50.112;8.952;2023-07-30T00:59:08;1.40;;;1.30;;
37151;SDS011;23046;50.112;8.952;2023-07-30T00:59:19;1.53;;;1.43;;
37151;SDS011;23046;50.112;8.952;2023-07-30T00:59:30;1.52;;;1.42;;
37151;SDS011;23046;50.112;8.952;2023-07-30T00:59:40;1.43;;;1.33;;
37151;SDS011;23046;50.112;8.952;2023-07-30T00:59:50;1.40;;;1.30;;
37151;SDS011;23046;50.112;8.952;2023-07-30T01:00:01;1.42;;;1.33;;
37151;SDS011;23046;50.112;8.952;2023-07-30T01:00:14;1.38;;;1.27;;
37151;SDS011;23046;50.112;8.952;2023-07-30T01:00:26;1.42;;;1.33;;
37151;SDS011;23046;50.112;8.952;2023-07-30T01:00:36;1.30;;;1.20;;
37151;SDS011;23046;50.112;8.952;2023-07-30T01:00:47;1.45;;;1.30;;
37151;SDS011;23046;50.112;8.952;2023-07-30T01:00:57;2.00;;;1.40;;
37151;SDS011;23046;50.112;8.952;2023-07-30T01:01:07;2.00;;;1.30;;
37151;SDS011;23046;50.112;8.952;2023-07-30T01:01:17;2.00;;;1.40;;
37151;SDS011;23046;50.112;8.952;2023-07-30T01:01:28;1.40;;;1.30;;
37151;SDS011;23046;50.112;8.952;2023-07-30T01:01:39;1.40;;;1.30;;
37151;SDS011;23046;50.112;8.952;2023-07-30T01:01:51;1.35;;;1.25;;
37151;SDS011;23046;50.112;8.952;2023-07-30T01:02:02;1.30;;;1.20;;
37151;SDS011;23046;50.112;8.952;2023-07-30T01:02:13;1.30;;;1.20;;
37151;SDS011;23046;50.112;8.952;2023-07-30T01:02:25;1.20;;;1.10;;
37151;SDS011;23046;50.112;8.952;2023-07-30T01:02:36;1.40;;;1.30;;
37151;SDS011;23046;50.112;8.952;2023-07-30T01:02:46;1.92;;;1.33;;
37151;SDS011;23046;50.112;8.952;2023-07-30T01:02:56;2.10;;;1.30;;
37151;SDS011;23046;50.112;8.952;2023-07-30T01:03:07;2.90;;;1.27;;
37151;SDS011;23046;50.112;8.952;2023-07-30T01:03:17;1.73;;;1.25;;
37151;SDS011;23046;50.112;8.952;2023-07-30T01:03:27;1.90;;;1.40;;
37151;SDS011;23046;50.112;8.952;2023-07-30T01:03:37;1.50;;;1.40;;
37151;SDS011;23046;50.112;8.952;2023-07-30T01:03:48;1.40;;;1.30;;
37151;SDS011;23046;50.112;8.952;2023-07-30T01:04:01;1.30;;;1.20;;